sensor_id;sensor_type;location;lat;lon;timestamp;P1;durP1;ratioP1;P2;durP2;ratioP2
63276;SDS011;49403;51.046;13.780;2023-04-29T00:00:15;21.52;;;13.70;;
63276;SDS011;49403;51.046;13.780;2023-04-29T00:00:47;24.35;;;14.68;;
63276;SDS011;49403;51.046;13.780;2023-04-29T00:01:18;23.35;;;14.32;;
63276;SDS011;49403;51.046;13.780;2023-04-29T00:01:49;23.60;;;14.88;;
63276;SDS011;49403;51.046;13.780;2023-04-29T00:02:21;24.83;;;14.00;;
63276;SDS011;49403;51.046;13.780;2023-04-29T00:02:52;24.42;;;14.55;;
63276;SDS011;49403;51.046;13.780;2023-04-29T00:03:23;22.77;;;14.57;;
63276;SDS011;49403;51.046;13.780;2023-04-29T00:03:58;22.80;;;14.25;;
63276;SDS011;49403;51.046;13.780;2023-04-29T00:04:32;18.98;;;14.15;;
63276;SDS011;49403;51.046;13.780;2023-04-29T00:05:04;21.45;;;14.48;;
63276;SDS011;49403;51.046;13.780;2023-04-29T00:05:35;23.45;;;15.13;;
63276;SDS011;49403;51.046;13.780;2023-04-29T00:06:06;21.58;;;14.95;;
63276;SDS011;49403;51.046;13.780;2023-04-29T00:06:41;20.92;;;14.13;;
63276;SDS011;49403;51.046;13.780;2023-04-29T00:07:15;23.42;;;14.65;;
63276;SDS011;49403;51.046;13.780;2023-04-29T00:07:47;23.85;;;14.68;;
63276;SDS011;49403;51.046;13.780;2023-04-29T00:08:18;24.27;;;14.15;;
63276;SDS011;49403;51.046;13.780;2023-04-29T00:08:50;21.80;;;14.50;;
63276;SDS011;49403;51.046;13.780;2023-04-29T00:09:22;24.77;;;15.25;;
63276;SDS011;49403;51.046;13.780;2023-04-29T00:10:02;22.98;;;15.23;;
63276;SDS011;49403;51.046;13.780;2023-04-29T00:10:45;24.38;;;14.38;;
63276;SDS011;49403;51.046;13.780;2023-04-29T00:11:16;23.75;;;14.35;;
63276;SDS011;49403;51.046;13.780;2023-04-29T00:11:51;22.00;;;13.68;;
63276;SDS011;49403;51.046;13.780;2023-04-29T00:12:25;26.55;;;14.35;;
63276;SDS011;49403;51.046;13.780;2023-04-29T00:12:59;24.10;;;15.20;;
63276;SDS011;49403;51.046;13.780;2023-04-29T00:13:30;21.75;;;14.13;;
63276;SDS011;49403;51.046;13.780;2023-04-29T00:14:01;22.40;;;14.32;;
63276;SDS011;49403;51.046;13.780;2023-04-29T00:14:33;22.75;;;14.18;;
63276;SDS011;49403;51.046;13.780;2023-04-29T00:15:04;19.70;;;14.57;;
63276;SDS011;49403;51.046;13.780;2023-04-29T00:15:39;23.23;;;14.55;;
63276;SDS011;49403;51.046;13.780;2023-04-29T00:16:11;27.35;;;15.57;;
63276;SDS011;49403;51.046;13.780;2023-04-29T00:16:42;23.98;;;15.05;;
63276;SDS011;49403;51.046;13.780;2023-04-29T00:17:14;22.60;;;14.45;;
63276;SDS011;49403;51.046;13.780;2023-04-29T00:17:45;21.58;;;14.95;;
63276;SDS011;49403;51.046;13.780;2023-04-29T00:18:20;26.83;;;15.45;;
63276;SDS011;49403;51.046;13.780;2023-04-29T00:18:51;23.35;;;14.73;;
63276;SDS011;49403;51.046;13.780;2023-04-29T00:19:26;25.25;;;15.55;;
63276;SDS011;49403;51.046;13.780;2023-04-29T00:19:58;24.50;;;14.73;;
63276;SDS011;49403;51.046;13.780;2023-04-29T00:20:29;23.25;;;14.50;;
63276;SDS011;49403;51.046;13.780;2023-04-29T00:21:00;25.00;;;14.25;;
63276;SDS011;49403;51.046;13.780;2023-04-29T00:21:35;24.95;;;14.82;;
63276;SDS011;49403;51.046;13.780;2023-04-29T00:22:06;24.05;;;14.85;;
63276;SDS011;49403;51.046;13.780;2023-04-29T00:22:38;24.27;;;14.77;;
63276;SDS011;49403;51.046;13.780;2023-04-29T00:23:09;23.65;;;14.80;;
63276;SDS011;49403;51.046;13.780;2023-04-29T00:23:40;22.65;;;15.00;;
63276;SDS011;49403;51.046;13.780;2023-04-29T00:24:12;21.80;;;14.82;;
63276;SDS011;49403;51.046;13.780;2023-04-29T00:24:43;27.15;;;14.95;;
63276;SDS011;49403;51.046;13.780;2023-04-29T00:25:17;24.10;;;15.40;;
63276;SDS011;49403;51.046;13.780;2023-04-29T00:25:49;23.17;;;15.60;;
63276;SDS011;49403;51.046;13.780;2023-04-29T00:26:23;27.33;;;15.50;;
63276;SDS011;49403;51.046;13.780;2023-04-29T00:26:57;24.90;;;14.27;;
63276;SDS011;49403;51.046;13.780;2023-04-29T00:27:29;23.35;;;14.63;;
63276;SDS011;49403;51.046;13.780;2023-04-29T00:28:00;26.35;;;15.32;;
63276;SDS011;49403;51.046;13.780;2023-04-29T00:28:33;24.45;;;15.60;;
63276;SDS011;49403;51.046;13.780;2023-04-29T00:29:08;21.25;;;14.15;;
63276;SDS011;49403;51.046;13.780;2023-04-29T00:29:42;25.33;;;14.80;;
63276;SDS011;49403;51.046;13.780;2023-04-29T00:30:17;25.85;;;15.95;;
63276;SDS011;49403;51.046;13.780;2023-04-29T00:30:48;23.15;;;14.45;;
63276;SDS011;49403;51.046;13.780;2023-04-29T00:31:21;22.17;;;15.35;;
63276;SDS011;49403;51.046;13.780;2023-04-29T00:31:53;23.02;;;14.55;;
63276;SDS011;49403;51.046;13.780;2023-04-29T00:32:27;27.92;;;14.75;;
63276;SDS011;49403;51.046;13.780;2023-04-29T00:32:59;25.90;;;15.13;;
63276;SDS011;49403;51.046;13.780;2023-04-29T00:33:30;25.52;;;14.30;;
63276;SDS011;49403;51.046;13.780;2023-04-29T00:34:02;24.42;;;14.75;;
63276;SDS011;49403;51.046;13.780;2023-04-29T00:34:33;21.08;;;14.98;;
63276;SDS011;49403;51.046;13.780;2023-04-29T00:35:05;24.48;;;14.57;;
63276;SDS011;49403;51.046;13.780;2023-04-29T00:35:36;21.73;;;14.05;;
63276;SDS011;49403;51.046;13.780;2023-04-29T00:36:07;21.98;;;14.90;;
63276;SDS011;49403;51.046;13.780;2023-04-29T00:36:38;26.17;;;14.82;;
63276;SDS011;49403;51.046;13.780;2023-04-29T00:37:09;27.92;;;15.50;;
63276;SDS011;49403;51.046;13.780;2023-04-29T00:37:41;22.95;;;14.75;;
63276;SDS011;49403;51.046;13.780;2023-04-29T00:38:12;22.63;;;14.95;;
63276;SDS011;49403;51.046;13.780;2023-04-29T00:38:43;28.27;;;15.07;;
63276;SDS011;49403;51.046;13.780;2023-04-29T00:39:14;22.42;;;15.23;;
63276;SDS011;49403;51.046;13.780;2023-04-29T00:39:45;21.13;;;15.18;;
63276;SDS011;49403;51.046;13.780;2023-04-29T00:40:17;21.92;;;14.73;;
63276;SDS011;49403;51.046;13.780;2023-04-29T00:40:48;23.63;;;14.02;;
63276;SDS011;49403;51.046;13.780;2023-04-29T00:41:19;23.05;;;14.82;;
63276;SDS011;49403;51.046;13.780;2023-04-29T00:41:51;29.17;;;15.63;;
63276;SDS011;49403;51.046;13.780;2023-04-29T00:42:22;22.42;;;14.88;;
63276;SDS011;49403;51.046;13.780;2023-04-29T00:42:54;24.50;;;15.02;;
63276;SDS011;49403;51.046;13.780;2023-04-29T00:43:26;25.13;;;15.13;;
63276;SDS011;49403;51.046;13.780;2023-04-29T00:43:57;22.90;;;14.93;;
63276;SDS011;49403;51.046;13.780;2023-04-29T00:44:28;21.65;;;14.35;;
63276;SDS011;49403;51.046;13.780;2023-04-29T00:45:00;23.80;;;15.02;;
63276;SDS011;49403;51.046;13.780;2023-04-29T00:45:31;23.30;;;15.27;;
63276;SDS011;49403;51.046;13.780;2023-04-29T00:46:03;25.33;;;15.35;;
63276;SDS011;49403;51.046;13.780;2023-04-29T00:46:34;20.80;;;14.43;;
63276;SDS011;49403;51.046;13.780;2023-04-29T00:47:06;22.67;;;14.82;;
63276;SDS011;49403;51.046;13.780;2023-04-29T00:47:40;22.58;;;14.88;;
63276;SDS011;49403;51.046;13.780;2023-04-29T00:48:11;22.73;;;14.52;;
63276;SDS011;49403;51.046;13.780;2023-04-29T00:48:44;23.02;;;14.40;;
63276;SDS011;49403;51.046;13.780;2023-04-29T00:49:15;23.10;;;14.80;;
63276;SDS011;49403;51.046;13.780;2023-04-29T00:49:46;21.63;;;14.75;;
63276;SDS011;49403;51.046;13.780;2023-04-29T00:50:17;21.48;;;14.98;;
63276;SDS011;49403;51.046;13.780;2023-04-29T00:50:49;31.65;;;15.65;;
63276;SDS011;49403;51.046;13.780;2023-04-29T00:51:20;28.00;;;15.82;;
63276;SDS011;49403;51.046;13.780;2023-04-29T00:51:52;25.52;;;15.18;;
63276;SDS011;49403;51.046;13.780;2023-04-29T00:52:25;23.02;;;14.18;;
63276;SDS011;49403;51.046;13.780;2023-04-29T00:53:01;25.73;;;15.43;;
63276;SDS011;49403;51.046;13.780;2023-04-29T00:53:33;25.83;;;15.30;;
63276;SDS011;49403;51.046;13.780;2023-04-29T00:54:07;24.92;;;15.02;;
63276;SDS011;49403;51.046;13.780;2023-04-29T00:54:40;24.10;;;14.75;;
63276;SDS011;49403;51.046;13.780;2023-04-29T00:55:11;25.50;;;15.52;;
63276;SDS011;49403;51.046;13.780;2023-04-29T00:55:43;26.65;;;15.80;;
63276;SDS011;49403;51.046;13.780;2023-04-29T00:56:15;24.65;;;14.85;;
63276;SDS011;49403;51.046;13.780;2023-04-29T00:56:46;23.65;;;14.88;;
63276;SDS011;49403;51.046;13.780;2023-04-29T00:57:19;24.05;;;15.48;;
63276;SDS011;49403;51.046;13.780;2023-04-29T00:57:51;23.90;;;15.18;;
63276;SDS011;49403;51.046;13.780;2023-04-29T00:58:23;26.52;;;15.63;;
63276;SDS011;49403;51.046;13.780;2023-04-29T00:59:01;23.88;;;15.48;;
63276;SDS011;49403;51.046;13.780;2023-04-29T00:59:33;23.75;;;14.88;;
63276;SDS011;49403;51.046;13.780;2023-04-29T01:00:07;28.67;;;15.02;;
63276;SDS011;49403;51.046;13.780;2023-04-29T01:00:39;24.90;;;14.95;;
63276;SDS011;49403;51.046;13.780;2023-04-29T01:01:11;22.92;;;15.40;;
63276;SDS011;49403;51.046;13.780;2023-04-29T01:01:43;25.65;;;14.88;;
63276;SDS011;49403;51.046;13.780;2023-04-29T01:02:14;27.20;;;15.63;;
63276;SDS011;49403;51.046;13.780;2023-04-29T01:02:47;26.73;;;15.38;;
63276;SDS011;49403;51.046;13.780;2023-04-29T01:03:19;22.38;;;15.15;;
63276;SDS011;49403;51.046;13.780;2023-04-29T01:03:50;24.00;;;15.27;;
63276;SDS011;49403;51.046;13.780;2023-04-29T01:04:21;28.58;;;15.38;;
63276;SDS011;49403;51.046;13.780;2023-04-29T01:04:53;25.00;;;15.73;;
63276;SDS011;49403;51.046;13.780;2023-04-29T01:05:24;21.80;;;14.70;;
63276;SDS011;49403;51.046;13.780;2023-04-29T01:06:14;26.63;;;15.45;;
63276;SDS011;49403;51.046;13.780;2023-04-29T01:07:17;25.52;;;15.10;;
63276;SDS011;49403;51.046;13.780;2023-04-29T01:08:47;24.35;;;14.80;;
63276;SDS011;49403;51.046;13.780;2023-04-29T01:10:27;30.38;;;15.90;;
63276;SDS011;49403;51.046;13.780;2023-04-29T01:11:05;26.42;;;15.23;;
63276;SDS011;49403;51.046;13.780;2023-04-29T01:11:41;23.08;;;15.13;;
63276;SDS011;49403;51.046;13.780;2023-04-29T01:14:02;23.00;;;15.20;;
63276;SDS011;49403;51.046;13.780;2023-04-29T01:14:34;28.85;;;15.70;;
63276;SDS011;49403;51.046;13.780;2023-04-29T01:15:10;26.33;;;15.70;;
63276;SDS011;49403;51.046;13.780;2023-04-29T01:15:59;39.90;;;16.05;;
63276;SDS011;49403;51.046;13.780;2023-04-29T01:16:36;22.60;;;14.98;;
63276;SDS011;49403;51.046;13.780;2023-04-29T01:17:10;27.00;;;15.30;;
63276;SDS011;49403;51.046;13.780;2023-04-29T01:18:57;25.00;;;15.63;;
63276;SDS011;49403;51.046;13.780;2023-04-29T01:19:38;25.15;;;15.50;;
63276;SDS011;49403;51.046;13.780;2023-04-29T01:20:17;25.75;;;15.48;;
63276;SDS011;49403;51.046;13.780;2023-04-29T01:20:50;28.58;;;15.98;;
63276;SDS011;49403;51.046;13.780;2023-04-29T01:21:23;27.40;;;16.20;;
63276;SDS011;49403;51.046;13.780;2023-04-29T01:21:55;27.08;;;15.52;;
63276;SDS011;49403;51.046;13.780;2023-04-29T01:22:26;26.52;;;16.10;;
63276;SDS011;49403;51.046;13.780;2023-04-29T01:22:58;27.27;;;16.17;;
63276;SDS011;49403;51.046;13.780;2023-04-29T01:23:30;29.38;;;15.43;;
63276;SDS011;49403;51.046;13.780;2023-04-29T01:24:01;25.35;;;16.40;;
63276;SDS011;49403;51.046;13.780;2023-04-29T01:24:32;27.75;;;16.25;;
63276;SDS011;49403;51.046;13.780;2023-04-29T01:25:04;26.65;;;15.68;;
63276;SDS011;49403;51.046;13.780;2023-04-29T01:25:37;24.48;;;15.70;;
63276;SDS011;49403;51.046;13.780;2023-04-29T01:26:08;26.58;;;15.52;;
63276;SDS011;49403;51.046;13.780;2023-04-29T01:26:40;30.45;;;16.42;;
63276;SDS011;49403;51.046;13.780;2023-04-29T01:30:01;25.60;;;15.27;;
63276;SDS011;49403;51.046;13.780;2023-04-29T01:31:51;25.23;;;15.27;;
63276;SDS011;49403;51.046;13.780;2023-04-29T01:32:59;25.90;;;15.52;;
63276;SDS011;49403;51.046;13.780;2023-04-29T01:33:50;30.63;;;15.70;;
63276;SDS011;49403;51.046;13.780;2023-04-29T01:34:58;26.92;;;15.10;;
63276;SDS011;49403;51.046;13.780;2023-04-29T01:37:51;27.60;;;15.30;;
63276;SDS011;49403;51.046;13.780;2023-04-29T01:38:46;27.40;;;15.52;;
63276;SDS011;49403;51.046;13.780;2023-04-29T01:40:36;26.88;;;15.27;;
63276;SDS011;49403;51.046;13.780;2023-04-29T01:43:15;26.50;;;15.85;;
63276;SDS011;49403;51.046;13.780;2023-04-29T01:43:48;30.35;;;16.58;;
63276;SDS011;49403;51.046;13.780;2023-04-29T01:44:25;30.77;;;16.45;;
63276;SDS011;49403;51.046;13.780;2023-04-29T01:44:59;27.80;;;16.80;;
63276;SDS011;49403;51.046;13.780;2023-04-29T01:45:33;26.92;;;16.63;;
63276;SDS011;49403;51.046;13.780;2023-04-29T01:46:10;31.15;;;17.63;;
63276;SDS011;49403;51.046;13.780;2023-04-29T01:46:47;29.63;;;17.20;;
63276;SDS011;49403;51.046;13.780;2023-04-29T01:47:25;26.73;;;15.90;;
63276;SDS011;49403;51.046;13.780;2023-04-29T01:47:59;27.98;;;15.98;;
63276;SDS011;49403;51.046;13.780;2023-04-29T01:48:32;30.23;;;17.42;;
63276;SDS011;49403;51.046;13.780;2023-04-29T01:49:03;31.75;;;17.08;;
63276;SDS011;49403;51.046;13.780;2023-04-29T01:49:36;26.33;;;16.48;;
63276;SDS011;49403;51.046;13.780;2023-04-29T01:50:08;28.20;;;17.38;;
63276;SDS011;49403;51.046;13.780;2023-04-29T01:50:43;26.73;;;16.83;;
63276;SDS011;49403;51.046;13.780;2023-04-29T01:51:16;30.13;;;16.40;;
63276;SDS011;49403;51.046;13.780;2023-04-29T01:51:48;32.67;;;17.23;;
63276;SDS011;49403;51.046;13.780;2023-04-29T01:52:22;27.95;;;16.88;;
63276;SDS011;49403;51.046;13.780;2023-04-29T01:52:53;27.60;;;16.92;;
63276;SDS011;49403;51.046;13.780;2023-04-29T01:53:25;32.85;;;18.02;;
63276;SDS011;49403;51.046;13.780;2023-04-29T01:53:59;28.17;;;17.60;;
63276;SDS011;49403;51.046;13.780;2023-04-29T01:54:33;31.50;;;17.65;;
63276;SDS011;49403;51.046;13.780;2023-04-29T01:55:07;29.10;;;17.25;;
63276;SDS011;49403;51.046;13.780;2023-04-29T01:55:40;32.22;;;18.42;;
63276;SDS011;49403;51.046;13.780;2023-04-29T01:56:13;32.05;;;18.35;;
63276;SDS011;49403;51.046;13.780;2023-04-29T01:56:45;27.58;;;17.00;;
63276;SDS011;49403;51.046;13.780;2023-04-29T01:57:16;31.40;;;17.88;;
63276;SDS011;49403;51.046;13.780;2023-04-29T01:57:48;28.67;;;17.27;;
63276;SDS011;49403;51.046;13.780;2023-04-29T01:58:20;27.73;;;17.40;;
63276;SDS011;49403;51.046;13.780;2023-04-29T01:58:54;27.88;;;17.00;;
63276;SDS011;49403;51.046;13.780;2023-04-29T01:59:28;29.15;;;17.15;;
63276;SDS011;49403;51.046;13.780;2023-04-29T02:00:00;29.33;;;17.60;;
63276;SDS011;49403;51.046;13.780;2023-04-29T02:00:34;30.65;;;17.75;;
63276;SDS011;49403;51.046;13.780;2023-04-29T02:01:05;29.33;;;17.42;;
63276;SDS011;49403;51.046;13.780;2023-04-29T02:01:39;33.33;;;17.73;;
63276;SDS011;49403;51.046;13.780;2023-04-29T02:02:10;32.75;;;18.20;;
63276;SDS011;49403;51.046;13.780;2023-04-29T02:02:44;26.50;;;17.23;;
63276;SDS011;49403;51.046;13.780;2023-04-29T02:03:15;29.58;;;18.13;;
63276;SDS011;49403;51.046;13.780;2023-04-29T02:03:46;29.02;;;17.10;;
63276;SDS011;49403;51.046;13.780;2023-04-29T02:04:18;28.08;;;18.13;;
63276;SDS011;49403;51.046;13.780;2023-04-29T02:04:51;30.02;;;17.38;;
63276;SDS011;49403;51.046;13.780;2023-04-29T02:05:23;29.00;;;17.17;;
63276;SDS011;49403;51.046;13.780;2023-04-29T02:05:57;32.28;;;17.42;;
63276;SDS011;49403;51.046;13.780;2023-04-29T02:06:29;36.00;;;17.75;;
63276;SDS011;49403;51.046;13.780;2023-04-29T02:07:03;30.50;;;18.15;;
63276;SDS011;49403;51.046;13.780;2023-04-29T02:07:34;28.63;;;17.27;;
63276;SDS011;49403;51.046;13.780;2023-04-29T02:08:06;29.35;;;17.17;;
63276;SDS011;49403;51.046;13.780;2023-04-29T02:08:38;30.33;;;17.83;;
63276;SDS011;49403;51.046;13.780;2023-04-29T02:09:09;29.67;;;18.08;;
63276;SDS011;49403;51.046;13.780;2023-04-29T02:09:40;31.98;;;17.52;;
63276;SDS011;49403;51.046;13.780;2023-04-29T02:10:12;34.90;;;17.75;;
63276;SDS011;49403;51.046;13.780;2023-04-29T02:10:55;27.48;;;17.17;;
63276;SDS011;49403;51.046;13.780;2023-04-29T02:11:28;33.88;;;17.67;;
63276;SDS011;49403;51.046;13.780;2023-04-29T02:12:02;27.50;;;17.23;;
63276;SDS011;49403;51.046;13.780;2023-04-29T02:12:34;29.23;;;17.63;;
63276;SDS011;49403;51.046;13.780;2023-04-29T02:13:05;29.27;;;17.45;;
63276;SDS011;49403;51.046;13.780;2023-04-29T02:13:40;27.23;;;17.23;;
63276;SDS011;49403;51.046;13.780;2023-04-29T02:14:11;32.05;;;17.73;;
63276;SDS011;49403;51.046;13.780;2023-04-29T02:14:43;30.00;;;18.10;;
63276;SDS011;49403;51.046;13.780;2023-04-29T02:15:16;32.30;;;17.10;;
63276;SDS011;49403;51.046;13.780;2023-04-29T02:15:50;27.58;;;16.88;;
63276;SDS011;49403;51.046;13.780;2023-04-29T02:16:21;26.75;;;17.08;;
63276;SDS011;49403;51.046;13.780;2023-04-29T02:16:52;30.88;;;18.80;;
63276;SDS011;49403;51.046;13.780;2023-04-29T02:17:24;30.50;;;18.40;;
63276;SDS011;49403;51.046;13.780;2023-04-29T02:17:58;31.95;;;17.70;;
63276;SDS011;49403;51.046;13.780;2023-04-29T02:18:29;32.25;;;18.10;;
63276;SDS011;49403;51.046;13.780;2023-04-29T02:19:00;29.55;;;18.00;;
63276;SDS011;49403;51.046;13.780;2023-04-29T02:19:31;32.70;;;18.58;;
63276;SDS011;49403;51.046;13.780;2023-04-29T02:20:03;28.02;;;17.63;;
63276;SDS011;49403;51.046;13.780;2023-04-29T02:20:34;30.38;;;18.38;;
63276;SDS011;49403;51.046;13.780;2023-04-29T02:21:05;34.45;;;18.25;;
63276;SDS011;49403;51.046;13.780;2023-04-29T02:21:37;30.75;;;18.52;;
63276;SDS011;49403;51.046;13.780;2023-04-29T02:22:11;31.45;;;18.60;;
63276;SDS011;49403;51.046;13.780;2023-04-29T02:22:42;29.55;;;18.42;;
63276;SDS011;49403;51.046;13.780;2023-04-29T02:23:14;31.80;;;19.10;;
63276;SDS011;49403;51.046;13.780;2023-04-29T02:23:45;35.25;;;18.80;;
63276;SDS011;49403;51.046;13.780;2023-04-29T02:24:19;28.63;;;17.40;;
63276;SDS011;49403;51.046;13.780;2023-04-29T02:24:50;29.35;;;17.98;;
63276;SDS011;49403;51.046;13.780;2023-04-29T02:25:22;32.80;;;19.00;;
63276;SDS011;49403;51.046;13.780;2023-04-29T02:25:53;33.55;;;18.90;;
63276;SDS011;49403;51.046;13.780;2023-04-29T02:26:24;36.47;;;19.50;;
63276;SDS011;49403;51.046;13.780;2023-04-29T02:26:55;31.15;;;18.60;;
63276;SDS011;49403;51.046;13.780;2023-04-29T02:27:28;33.13;;;18.92;;
63276;SDS011;49403;51.046;13.780;2023-04-29T02:27:59;34.45;;;19.45;;
63276;SDS011;49403;51.046;13.780;2023-04-29T02:28:30;35.08;;;19.23;;
63276;SDS011;49403;51.046;13.780;2023-04-29T02:29:02;33.30;;;19.40;;
63276;SDS011;49403;51.046;13.780;2023-04-29T02:29:33;35.80;;;20.00;;
63276;SDS011;49403;51.046;13.780;2023-04-29T02:30:05;34.75;;;19.95;;
63276;SDS011;49403;51.046;13.780;2023-04-29T02:30:37;33.35;;;19.08;;
63276;SDS011;49403;51.046;13.780;2023-04-29T02:31:08;33.28;;;20.10;;
63276;SDS011;49403;51.046;13.780;2023-04-29T02:31:39;36.22;;;19.70;;
63276;SDS011;49403;51.046;13.780;2023-04-29T02:32:10;30.83;;;19.05;;
63276;SDS011;49403;51.046;13.780;2023-04-29T02:32:44;32.20;;;18.60;;
63276;SDS011;49403;51.046;13.780;2023-04-29T02:33:15;36.45;;;19.23;;
63276;SDS011;49403;51.046;13.780;2023-04-29T02:33:47;31.77;;;19.58;;
63276;SDS011;49403;51.046;13.780;2023-04-29T02:34:18;32.15;;;19.45;;
63276;SDS011;49403;51.046;13.780;2023-04-29T02:34:49;31.75;;;18.55;;
63276;SDS011;49403;51.046;13.780;2023-04-29T02:35:20;39.60;;;19.98;;
63276;SDS011;49403;51.046;13.780;2023-04-29T02:35:51;31.95;;;18.40;;
63276;SDS011;49403;51.046;13.780;2023-04-29T02:36:22;33.78;;;19.33;;
63276;SDS011;49403;51.046;13.780;2023-04-29T02:36:54;33.15;;;18.70;;
63276;SDS011;49403;51.046;13.780;2023-04-29T02:37:25;32.75;;;18.67;;
63276;SDS011;49403;51.046;13.780;2023-04-29T02:37:56;28.77;;;17.95;;
63276;SDS011;49403;51.046;13.780;2023-04-29T02:38:30;32.58;;;19.20;;
63276;SDS011;49403;51.046;13.780;2023-04-29T02:39:01;33.53;;;18.42;;
63276;SDS011;49403;51.046;13.780;2023-04-29T02:39:33;32.72;;;18.35;;
63276;SDS011;49403;51.046;13.780;2023-04-29T02:40:04;32.50;;;18.55;;
63276;SDS011;49403;51.046;13.780;2023-04-29T02:40:54;31.95;;;18.67;;
63276;SDS011;49403;51.046;13.780;2023-04-29T02:41:25;33.60;;;18.50;;
63276;SDS011;49403;51.046;13.780;2023-04-29T02:41:57;32.38;;;17.92;;
63276;SDS011;49403;51.046;13.780;2023-04-29T02:42:28;33.45;;;19.13;;
63276;SDS011;49403;51.046;13.780;2023-04-29T02:42:59;36.88;;;20.00;;
63276;SDS011;49403;51.046;13.780;2023-04-29T02:43:30;33.85;;;18.88;;
63276;SDS011;49403;51.046;13.780;2023-04-29T02:44:01;33.03;;;18.88;;
63276;SDS011;49403;51.046;13.780;2023-04-29T02:44:33;35.33;;;19.10;;
63276;SDS011;49403;51.046;13.780;2023-04-29T02:45:04;34.70;;;18.48;;
63276;SDS011;49403;51.046;13.780;2023-04-29T02:45:36;31.48;;;17.55;;
63276;SDS011;49403;51.046;13.780;2023-04-29T02:46:08;29.10;;;17.38;;
63276;SDS011;49403;51.046;13.780;2023-04-29T02:46:39;29.80;;;18.48;;
63276;SDS011;49403;51.046;13.780;2023-04-29T02:47:14;33.38;;;18.58;;
63276;SDS011;49403;51.046;13.780;2023-04-29T02:47:45;32.58;;;18.85;;
63276;SDS011;49403;51.046;13.780;2023-04-29T02:48:16;33.95;;;18.35;;
63276;SDS011;49403;51.046;13.780;2023-04-29T02:48:47;37.60;;;18.58;;
63276;SDS011;49403;51.046;13.780;2023-04-29T02:49:19;37.22;;;19.15;;
63276;SDS011;49403;51.046;13.780;2023-04-29T02:49:50;35.33;;;18.90;;
63276;SDS011;49403;51.046;13.780;2023-04-29T02:50:21;29.80;;;17.98;;
63276;SDS011;49403;51.046;13.780;2023-04-29T02:50:54;35.67;;;19.05;;
63276;SDS011;49403;51.046;13.780;2023-04-29T02:51:26;35.53;;;18.27;;
63276;SDS011;49403;51.046;13.780;2023-04-29T02:52:00;35.22;;;19.00;;
63276;SDS011;49403;51.046;13.780;2023-04-29T02:52:32;34.35;;;19.30;;
63276;SDS011;49403;51.046;13.780;2023-04-29T02:53:06;30.95;;;18.70;;
63276;SDS011;49403;51.046;13.780;2023-04-29T02:53:37;32.15;;;19.00;;
63276;SDS011;49403;51.046;13.780;2023-04-29T02:54:09;33.55;;;18.90;;
63276;SDS011;49403;51.046;13.780;2023-04-29T02:55:20;29.98;;;17.63;;
63276;SDS011;49403;51.046;13.780;2023-04-29T02:55:51;32.80;;;17.70;;
63276;SDS011;49403;51.046;13.780;2023-04-29T02:56:23;33.05;;;18.02;;
63276;SDS011;49403;51.046;13.780;2023-04-29T02:57:00;30.85;;;18.13;;
63276;SDS011;49403;51.046;13.780;2023-04-29T02:57:35;32.47;;;18.10;;
63276;SDS011;49403;51.046;13.780;2023-04-29T02:58:10;32.45;;;17.85;;
63276;SDS011;49403;51.046;13.780;2023-04-29T02:58:43;32.03;;;18.13;;
63276;SDS011;49403;51.046;13.780;2023-04-29T02:59:14;32.63;;;18.70;;
63276;SDS011;49403;51.046;13.780;2023-04-29T02:59:46;37.63;;;18.90;;
63276;SDS011;49403;51.046;13.780;2023-04-29T03:00:17;32.05;;;17.48;;
63276;SDS011;49403;51.046;13.780;2023-04-29T03:00:53;32.03;;;16.95;;
63276;SDS011;49403;51.046;13.780;2023-04-29T03:01:27;33.17;;;18.15;;
63276;SDS011;49403;51.046;13.780;2023-04-29T03:02:01;32.45;;;17.77;;
63276;SDS011;49403;51.046;13.780;2023-04-29T03:02:33;34.13;;;17.58;;
63276;SDS011;49403;51.046;13.780;2023-04-29T03:03:04;30.33;;;17.52;;
63276;SDS011;49403;51.046;13.780;2023-04-29T03:03:35;32.58;;;18.33;;
63276;SDS011;49403;51.046;13.780;2023-04-29T03:04:07;32.28;;;17.92;;
63276;SDS011;49403;51.046;13.780;2023-04-29T03:04:39;32.17;;;18.15;;
63276;SDS011;49403;51.046;13.780;2023-04-29T03:05:10;33.40;;;17.80;;
63276;SDS011;49403;51.046;13.780;2023-04-29T03:05:41;32.17;;;17.70;;
63276;SDS011;49403;51.046;13.780;2023-04-29T03:06:16;33.22;;;17.55;;
63276;SDS011;49403;51.046;13.780;2023-04-29T03:06:47;31.10;;;17.38;;
63276;SDS011;49403;51.046;13.780;2023-04-29T03:07:22;29.63;;;17.02;;
63276;SDS011;49403;51.046;13.780;2023-04-29T03:07:53;30.83;;;17.15;;
63276;SDS011;49403;51.046;13.780;2023-04-29T03:08:25;32.20;;;17.73;;
63276;SDS011;49403;51.046;13.780;2023-04-29T03:08:57;28.05;;;16.55;;
63276;SDS011;49403;51.046;13.780;2023-04-29T03:09:28;29.95;;;16.88;;
63276;SDS011;49403;51.046;13.780;2023-04-29T03:09:59;29.65;;;17.40;;
63276;SDS011;49403;51.046;13.780;2023-04-29T03:10:31;33.03;;;18.00;;
63276;SDS011;49403;51.046;13.780;2023-04-29T03:11:05;32.70;;;17.33;;
63276;SDS011;49403;51.046;13.780;2023-04-29T03:11:36;30.02;;;16.92;;
63276;SDS011;49403;51.046;13.780;2023-04-29T03:12:08;35.97;;;17.25;;
63276;SDS011;49403;51.046;13.780;2023-04-29T03:12:42;31.48;;;18.00;;
63276;SDS011;49403;51.046;13.780;2023-04-29T03:13:16;29.67;;;16.80;;
63276;SDS011;49403;51.046;13.780;2023-04-29T03:13:48;28.95;;;16.58;;
63276;SDS011;49403;51.046;13.780;2023-04-29T03:14:19;29.52;;;16.80;;
63276;SDS011;49403;51.046;13.780;2023-04-29T03:14:54;28.60;;;16.92;;
63276;SDS011;49403;51.046;13.780;2023-04-29T03:15:26;32.75;;;16.73;;
63276;SDS011;49403;51.046;13.780;2023-04-29T03:15:57;31.10;;;16.17;;
63276;SDS011;49403;51.046;13.780;2023-04-29T03:16:29;28.58;;;16.50;;
63276;SDS011;49403;51.046;13.780;2023-04-29T03:17:04;29.27;;;15.90;;
63276;SDS011;49403;51.046;13.780;2023-04-29T03:17:38;28.70;;;16.25;;
63276;SDS011;49403;51.046;13.780;2023-04-29T03:18:12;29.25;;;15.63;;
63276;SDS011;49403;51.046;13.780;2023-04-29T03:18:43;30.42;;;15.57;;
63276;SDS011;49403;51.046;13.780;2023-04-29T03:19:15;27.73;;;15.35;;
63276;SDS011;49403;51.046;13.780;2023-04-29T03:19:46;25.42;;;15.23;;
63276;SDS011;49403;51.046;13.780;2023-04-29T03:20:22;28.10;;;15.50;;
63276;SDS011;49403;51.046;13.780;2023-04-29T03:20:53;26.08;;;15.63;;
63276;SDS011;49403;51.046;13.780;2023-04-29T03:21:30;29.83;;;15.57;;
63276;SDS011;49403;51.046;13.780;2023-04-29T03:22:04;27.98;;;15.57;;
63276;SDS011;49403;51.046;13.780;2023-04-29T03:22:38;24.30;;;14.38;;
63276;SDS011;49403;51.046;13.780;2023-04-29T03:23:13;26.30;;;15.38;;
63276;SDS011;49403;51.046;13.780;2023-04-29T03:23:47;27.15;;;15.18;;
63276;SDS011;49403;51.046;13.780;2023-04-29T03:24:21;23.75;;;13.95;;
63276;SDS011;49403;51.046;13.780;2023-04-29T03:24:52;23.58;;;14.55;;
63276;SDS011;49403;51.046;13.780;2023-04-29T03:25:24;28.27;;;14.85;;
63276;SDS011;49403;51.046;13.780;2023-04-29T03:25:55;27.17;;;15.10;;